sensor_id;sensor_type;location;lat;lon;timestamp;P1;durP1;ratioP1;P2;durP2;ratioP2
80423;SDS011;69765;47.668;19.326;2023-06-26T00:02:32;4.80;;;3.58;;
80423;SDS011;69765;47.668;19.326;2023-06-26T00:05:35;5.72;;;4.15;;
80423;SDS011;69765;47.668;19.326;2023-06-26T00:08:37;6.53;;;3.97;;
80423;SDS011;69765;47.668;19.326;2023-06-26T00:11:40;5.43;;;3.72;;
80423;SDS011;69765;47.668;19.326;2023-06-26T00:14:42;7.38;;;4.10;;
80423;SDS011;69765;47.668;19.326;2023-06-26T00:17:44;5.45;;;3.90;;
80423;SDS011;69765;47.668;19.326;2023-06-26T00:20:47;6.32;;;3.97;;
80423;SDS011;69765;47.668;19.326;2023-06-26T00:23:49;5.10;;;3.78;;
80423;SDS011;69765;47.668;19.326;2023-06-26T00:26:52;6.60;;;4.28;;
80423;SDS011;69765;47.668;19.326;2023-06-26T00:29:54;5.70;;;4.18;;
80423;SDS011;69765;47.668;19.326;2023-06-26T00:32:58;6.85;;;4.28;;
80423;SDS011;69765;47.668;19.326;2023-06-26T00:36:00;8.63;;;4.30;;
80423;SDS011;69765;47.668;19.326;2023-06-26T00:39:05;9.80;;;4.47;;
80423;SDS011;69765;47.668;19.326;2023-06-26T00:42:09;5.38;;;3.80;;
80423;SDS011;69765;47.668;19.326;2023-06-26T00:45:12;7.32;;;5.25;;
80423;SDS011;69765;47.668;19.326;2023-06-26T00:48:15;5.18;;;3.78;;
80423;SDS011;69765;47.668;19.326;2023-06-26T00:51:17;6.30;;;4.35;;
80423;SDS011;69765;47.668;19.326;2023-06-26T00:54:20;5.40;;;4.25;;
80423;SDS011;69765;47.668;19.326;2023-06-26T00:57:24;6.68;;;4.43;;
80423;SDS011;69765;47.668;19.326;2023-06-26T01:00:28;7.35;;;4.65;;
80423;SDS011;69765;47.668;19.326;2023-06-26T01:03:32;6.03;;;4.05;;
80423;SDS011;69765;47.668;19.326;2023-06-26T01:06:34;7.15;;;4.47;;
80423;SDS011;69765;47.668;19.326;2023-06-26T01:09:37;7.13;;;4.60;;
80423;SDS011;69765;47.668;19.326;2023-06-26T01:12:40;5.10;;;4.07;;
80423;SDS011;69765;47.668;19.326;2023-06-26T01:15:42;6.82;;;4.10;;
80423;SDS011;69765;47.668;19.326;2023-06-26T01:18:45;6.10;;;4.68;;
80423;SDS011;69765;47.668;19.326;2023-06-26T01:21:48;5.40;;;4.00;;
80423;SDS011;69765;47.668;19.326;2023-06-26T01:28:25;5.18;;;3.65;;
80423;SDS011;69765;47.668;19.326;2023-06-26T01:31:31;6.43;;;3.80;;
80423;SDS011;69765;47.668;19.326;2023-06-26T01:34:36;5.82;;;4.05;;
80423;SDS011;69765;47.668;19.326;2023-06-26T01:37:40;5.80;;;3.85;;
80423;SDS011;69765;47.668;19.326;2023-06-26T01:40:42;6.30;;;3.92;;
80423;SDS011;69765;47.668;19.326;2023-06-26T01:47:16;6.22;;;4.22;;
80423;SDS011;69765;47.668;19.326;2023-06-26T01:50:24;5.50;;;3.80;;
80423;SDS011;69765;47.668;19.326;2023-06-26T01:53:32;5.53;;;3.85;;
80423;SDS011;69765;47.668;19.326;2023-06-26T01:56:40;6.10;;;3.33;;
80423;SDS011;69765;47.668;19.326;2023-06-26T01:59:46;5.75;;;4.43;;
80423;SDS011;69765;47.668;19.326;2023-06-26T02:02:49;5.72;;;3.65;;
80423;SDS011;69765;47.668;19.326;2023-06-26T02:05:52;4.65;;;3.28;;
80423;SDS011;69765;47.668;19.326;2023-06-26T02:08:54;8.20;;;4.03;;
80423;SDS011;69765;47.668;19.326;2023-06-26T02:11:58;7.35;;;3.78;;
80423;SDS011;69765;47.668;19.326;2023-06-26T02:15:00;7.95;;;4.15;;
80423;SDS011;69765;47.668;19.326;2023-06-26T02:18:03;6.55;;;4.30;;
80423;SDS011;69765;47.668;19.326;2023-06-26T02:21:05;6.57;;;4.45;;
80423;SDS011;69765;47.668;19.326;2023-06-26T02:24:08;7.07;;;4.13;;
80423;SDS011;69765;47.668;19.326;2023-06-26T02:27:11;8.32;;;4.47;;
80423;SDS011;69765;47.668;19.326;2023-06-26T02:30:14;5.32;;;4.38;;
80423;SDS011;69765;47.668;19.326;2023-06-26T02:33:17;6.30;;;4.03;;
80423;SDS011;69765;47.668;19.326;2023-06-26T02:36:23;6.20;;;4.15;;
80423;SDS011;69765;47.668;19.326;2023-06-26T02:39:25;6.20;;;3.90;;
80423;SDS011;69765;47.668;19.326;2023-06-26T02:42:28;5.30;;;4.00;;
80423;SDS011;69765;47.668;19.326;2023-06-26T02:45:31;12.18;;;4.85;;
80423;SDS011;69765;47.668;19.326;2023-06-26T02:48:34;7.90;;;4.07;;
80423;SDS011;69765;47.668;19.326;2023-06-26T02:51:36;6.65;;;4.25;;
80423;SDS011;69765;47.668;19.326;2023-06-26T02:54:47;5.60;;;3.72;;
80423;SDS011;69765;47.668;19.326;2023-06-26T02:57:49;6.25;;;3.45;;
80423;SDS011;69765;47.668;19.326;2023-06-26T03:00:51;5.43;;;3.60;;
80423;SDS011;69765;47.668;19.326;2023-06-26T03:03:55;6.40;;;4.40;;
80423;SDS011;69765;47.668;19.326;2023-06-26T03:06:58;7.18;;;4.43;;
80423;SDS011;69765;47.668;19.326;2023-06-26T03:10:00;6.80;;;4.20;;
80423;SDS011;69765;47.668;19.326;2023-06-26T03:13:02;5.85;;;4.22;;
80423;SDS011;69765;47.668;19.326;2023-06-26T03:16:05;6.80;;;4.78;;
80423;SDS011;69765;47.668;19.326;2023-06-26T03:19:08;6.35;;;4.07;;
80423;SDS011;69765;47.668;19.326;2023-06-26T03:22:30;7.57;;;4.32;;
80423;SDS011;69765;47.668;19.326;2023-06-26T03:25:32;7.97;;;4.63;;
80423;SDS011;69765;47.668;19.326;2023-06-26T03:28:55;8.75;;;4.63;;
80423;SDS011;69765;47.668;19.326;2023-06-26T03:31:58;6.75;;;3.97;;
80423;SDS011;69765;47.668;19.326;2023-06-26T03:35:01;6.75;;;3.90;;
80423;SDS011;69765;47.668;19.326;2023-06-26T03:38:08;5.65;;;3.67;;
80423;SDS011;69765;47.668;19.326;2023-06-26T03:41:10;6.90;;;4.75;;
80423;SDS011;69765;47.668;19.326;2023-06-26T03:44:13;7.32;;;5.03;;
80423;SDS011;69765;47.668;19.326;2023-06-26T03:47:20;7.53;;;6.03;;
80423;SDS011;69765;47.668;19.326;2023-06-26T03:50:22;8.25;;;5.47;;
80423;SDS011;69765;47.668;19.326;2023-06-26T03:53:25;7.55;;;5.65;;
80423;SDS011;69765;47.668;19.326;2023-06-26T03:56:27;7.18;;;5.25;;
80423;SDS011;69765;47.668;19.326;2023-06-26T03:59:29;6.95;;;5.30;;
80423;SDS011;69765;47.668;19.326;2023-06-26T04:02:33;8.02;;;5.97;;
80423;SDS011;69765;47.668;19.326;2023-06-26T04:05:35;9.00;;;6.22;;
80423;SDS011;69765;47.668;19.326;2023-06-26T04:08:38;7.85;;;5.82;;
80423;SDS011;69765;47.668;19.326;2023-06-26T04:11:40;9.05;;;5.82;;
80423;SDS011;69765;47.668;19.326;2023-06-26T04:14:42;8.70;;;5.63;;
80423;SDS011;69765;47.668;19.326;2023-06-26T04:17:45;8.60;;;6.20;;
80423;SDS011;69765;47.668;19.326;2023-06-26T04:21:04;9.93;;;5.60;;
80423;SDS011;69765;47.668;19.326;2023-06-26T04:24:10;9.52;;;5.63;;
80423;SDS011;69765;47.668;19.326;2023-06-26T04:27:16;8.63;;;5.47;;
80423;SDS011;69765;47.668;19.326;2023-06-26T04:30:19;8.68;;;6.00;;
80423;SDS011;69765;47.668;19.326;2023-06-26T04:33:21;8.13;;;6.07;;
80423;SDS011;69765;47.668;19.326;2023-06-26T04:36:23;8.00;;;5.45;;
80423;SDS011;69765;47.668;19.326;2023-06-26T04:39:30;8.55;;;5.75;;
80423;SDS011;69765;47.668;19.326;2023-06-26T04:42:33;9.57;;;5.28;;
80423;SDS011;69765;47.668;19.326;2023-06-26T04:45:35;8.18;;;5.20;;
80423;SDS011;69765;47.668;19.326;2023-06-26T04:48:38;6.63;;;4.95;;
80423;SDS011;69765;47.668;19.326;2023-06-26T04:51:41;7.30;;;5.25;;
80423;SDS011;69765;47.668;19.326;2023-06-26T04:54:43;8.70;;;5.47;;
80423;SDS011;69765;47.668;19.326;2023-06-26T04:57:46;7.50;;;5.38;;
80423;SDS011;69765;47.668;19.326;2023-06-26T05:00:48;6.60;;;5.35;;
80423;SDS011;69765;47.668;19.326;2023-06-26T05:03:51;7.80;;;5.20;;
80423;SDS011;69765;47.668;19.326;2023-06-26T05:06:53;8.30;;;4.55;;
80423;SDS011;69765;47.668;19.326;2023-06-26T05:09:56;8.23;;;5.15;;
80423;SDS011;69765;47.668;19.326;2023-06-26T05:12:59;9.35;;;5.10;;
80423;SDS011;69765;47.668;19.326;2023-06-26T05:16:01;10.15;;;6.25;;
80423;SDS011;69765;47.668;19.326;2023-06-26T05:19:03;7.30;;;5.30;;
80423;SDS011;69765;47.668;19.326;2023-06-26T05:22:06;6.93;;;4.72;;
80423;SDS011;69765;47.668;19.326;2023-06-26T05:25:09;9.80;;;4.85;;
80423;SDS011;69765;47.668;19.326;2023-06-26T05:28:13;6.88;;;5.25;;
80423;SDS011;69765;47.668;19.326;2023-06-26T05:31:17;9.15;;;4.68;;
80423;SDS011;69765;47.668;19.326;2023-06-26T05:34:20;7.25;;;5.15;;
80423;SDS011;69765;47.668;19.326;2023-06-26T05:37:25;7.50;;;4.03;;
80423;SDS011;69765;47.668;19.326;2023-06-26T05:40:30;7.95;;;5.45;;
80423;SDS011;69765;47.668;19.326;2023-06-26T05:43:33;8.75;;;4.38;;
80423;SDS011;69765;47.668;19.326;2023-06-26T05:46:36;8.13;;;4.93;;
80423;SDS011;69765;47.668;19.326;2023-06-26T05:49:38;6.00;;;4.35;;
80423;SDS011;69765;47.668;19.326;2023-06-26T05:52:41;6.68;;;4.55;;
80423;SDS011;69765;47.668;19.326;2023-06-26T05:55:44;9.15;;;4.65;;
80423;SDS011;69765;47.668;19.326;2023-06-26T05:58:46;5.88;;;4.57;;
80423;SDS011;69765;47.668;19.326;2023-06-26T06:01:49;9.60;;;4.88;;
80423;SDS011;69765;47.668;19.326;2023-06-26T06:04:51;6.95;;;5.50;;
80423;SDS011;69765;47.668;19.326;2023-06-26T06:07:54;6.75;;;4.70;;
80423;SDS011;69765;47.668;19.326;2023-06-26T06:10:56;6.03;;;4.30;;
80423;SDS011;69765;47.668;19.326;2023-06-26T06:13:58;10.35;;;4.82;;
80423;SDS011;69765;47.668;19.326;2023-06-26T06:17:01;7.60;;;5.00;;
80423;SDS011;69765;47.668;19.326;2023-06-26T06:20:04;7.28;;;5.38;;
80423;SDS011;69765;47.668;19.326;2023-06-26T06:23:06;6.50;;;4.65;;
80423;SDS011;69765;47.668;19.326;2023-06-26T06:26:09;6.55;;;4.32;;
80423;SDS011;69765;47.668;19.326;2023-06-26T06:29:11;5.93;;;4.68;;
80423;SDS011;69765;47.668;19.326;2023-06-26T06:32:13;6.65;;;5.47;;
80423;SDS011;69765;47.668;19.326;2023-06-26T06:35:17;7.93;;;5.25;;
80423;SDS011;69765;47.668;19.326;2023-06-26T06:38:19;6.50;;;4.90;;
80423;SDS011;69765;47.668;19.326;2023-06-26T06:41:22;7.05;;;5.80;;
80423;SDS011;69765;47.668;19.326;2023-06-26T06:44:24;8.93;;;5.22;;
80423;SDS011;69765;47.668;19.326;2023-06-26T06:47:26;6.90;;;5.18;;
80423;SDS011;69765;47.668;19.326;2023-06-26T06:50:28;6.88;;;5.65;;
80423;SDS011;69765;47.668;19.326;2023-06-26T06:53:31;7.35;;;5.43;;
80423;SDS011;69765;47.668;19.326;2023-06-26T06:56:33;7.40;;;4.95;;
80423;SDS011;69765;47.668;19.326;2023-06-26T06:59:36;5.40;;;4.38;;
80423;SDS011;69765;47.668;19.326;2023-06-26T07:02:38;7.43;;;4.82;;
80423;SDS011;69765;47.668;19.326;2023-06-26T07:05:42;5.72;;;5.05;;
80423;SDS011;69765;47.668;19.326;2023-06-26T07:08:45;6.13;;;5.47;;
80423;SDS011;69765;47.668;19.326;2023-06-26T07:11:47;6.63;;;4.63;;
80423;SDS011;69765;47.668;19.326;2023-06-26T07:14:49;7.18;;;5.25;;
80423;SDS011;69765;47.668;19.326;2023-06-26T07:17:51;6.22;;;5.30;;
80423;SDS011;69765;47.668;19.326;2023-06-26T07:20:54;5.70;;;5.00;;
80423;SDS011;69765;47.668;19.326;2023-06-26T07:23:56;5.82;;;5.22;;
80423;SDS011;69765;47.668;19.326;2023-06-26T07:26:59;6.05;;;5.07;;
80423;SDS011;69765;47.668;19.326;2023-06-26T07:30:02;6.63;;;5.20;;
80423;SDS011;69765;47.668;19.326;2023-06-26T07:33:05;9.25;;;5.22;;
80423;SDS011;69765;47.668;19.326;2023-06-26T07:36:08;7.18;;;5.68;;
80423;SDS011;69765;47.668;19.326;2023-06-26T07:39:10;8.70;;;5.65;;
80423;SDS011;69765;47.668;19.326;2023-06-26T07:42:18;7.22;;;5.50;;
80423;SDS011;69765;47.668;19.326;2023-06-26T07:45:21;6.55;;;5.72;;
80423;SDS011;69765;47.668;19.326;2023-06-26T07:48:26;6.05;;;5.43;;
80423;SDS011;69765;47.668;19.326;2023-06-26T07:51:28;7.78;;;5.20;;
80423;SDS011;69765;47.668;19.326;2023-06-26T07:54:30;8.02;;;5.13;;
80423;SDS011;69765;47.668;19.326;2023-06-26T07:57:33;5.82;;;4.72;;
80423;SDS011;69765;47.668;19.326;2023-06-26T08:00:35;6.85;;;5.32;;
80423;SDS011;69765;47.668;19.326;2023-06-26T08:03:38;7.80;;;5.40;;
80423;SDS011;69765;47.668;19.326;2023-06-26T08:06:42;5.82;;;5.03;;
80423;SDS011;69765;47.668;19.326;2023-06-26T08:09:44;8.60;;;5.47;;
80423;SDS011;69765;47.668;19.326;2023-06-26T08:12:46;6.20;;;5.35;;
80423;SDS011;69765;47.668;19.326;2023-06-26T08:15:50;7.47;;;5.82;;
80423;SDS011;69765;47.668;19.326;2023-06-26T08:18:54;7.70;;;5.57;;
80423;SDS011;69765;47.668;19.326;2023-06-26T08:21:58;7.88;;;5.40;;
80423;SDS011;69765;47.668;19.326;2023-06-26T08:25:01;6.80;;;4.80;;
80423;SDS011;69765;47.668;19.326;2023-06-26T08:28:05;6.57;;;5.40;;
80423;SDS011;69765;47.668;19.326;2023-06-26T08:31:09;5.78;;;5.18;;
80423;SDS011;69765;47.668;19.326;2023-06-26T08:34:12;5.70;;;4.85;;
80423;SDS011;69765;47.668;19.326;2023-06-26T08:37:14;6.95;;;5.03;;
80423;SDS011;69765;47.668;19.326;2023-06-26T08:40:17;6.40;;;4.97;;
80423;SDS011;69765;47.668;19.326;2023-06-26T08:43:20;6.82;;;5.07;;
80423;SDS011;69765;47.668;19.326;2023-06-26T08:46:23;6.80;;;5.63;;
80423;SDS011;69765;47.668;19.326;2023-06-26T08:49:34;7.88;;;5.38;;
80423;SDS011;69765;47.668;19.326;2023-06-26T08:52:59;6.85;;;5.60;;
80423;SDS011;69765;47.668;19.326;2023-06-26T08:56:09;7.00;;;4.90;;
80423;SDS011;69765;47.668;19.326;2023-06-26T08:59:17;6.80;;;5.53;;
80423;SDS011;69765;47.668;19.326;2023-06-26T09:02:19;11.07;;;5.82;;
80423;SDS011;69765;47.668;19.326;2023-06-26T09:05:26;7.68;;;5.05;;
80423;SDS011;69765;47.668;19.326;2023-06-26T09:08:29;6.68;;;5.53;;
80423;SDS011;69765;47.668;19.326;2023-06-26T09:11:31;6.15;;;5.40;;
80423;SDS011;69765;47.668;19.326;2023-06-26T09:14:33;6.13;;;5.40;;
80423;SDS011;69765;47.668;19.326;2023-06-26T09:17:39;5.70;;;4.90;;
80423;SDS011;69765;47.668;19.326;2023-06-26T09:20:44;7.43;;;5.82;;
80423;SDS011;69765;47.668;19.326;2023-06-26T09:23:47;5.18;;;4.65;;
80423;SDS011;69765;47.668;19.326;2023-06-26T09:26:50;6.15;;;5.35;;
80423;SDS011;69765;47.668;19.326;2023-06-26T09:29:53;6.72;;;5.88;;
80423;SDS011;69765;47.668;19.326;2023-06-26T09:32:56;7.90;;;6.13;;
80423;SDS011;69765;47.668;19.326;2023-06-26T09:35:59;8.48;;;6.15;;
80423;SDS011;69765;47.668;19.326;2023-06-26T09:39:02;6.22;;;5.47;;
80423;SDS011;69765;47.668;19.326;2023-06-26T09:42:06;6.80;;;5.93;;
80423;SDS011;69765;47.668;19.326;2023-06-26T09:45:13;6.28;;;5.63;;
80423;SDS011;69765;47.668;19.326;2023-06-26T09:48:20;8.30;;;5.85;;
80423;SDS011;69765;47.668;19.326;2023-06-26T09:51:22;7.07;;;5.35;;
80423;SDS011;69765;47.668;19.326;2023-06-26T09:54:25;6.65;;;5.47;;
80423;SDS011;69765;47.668;19.326;2023-06-26T09:57:31;6.70;;;5.07;;
80423;SDS011;69765;47.668;19.326;2023-06-26T10:00:37;6.85;;;5.07;;
80423;SDS011;69765;47.668;19.326;2023-06-26T10:03:39;7.80;;;4.97;;
80423;SDS011;69765;47.668;19.326;2023-06-26T10:06:46;7.80;;;4.85;;
80423;SDS011;69765;47.668;19.326;2023-06-26T10:09:50;6.82;;;4.88;;
80423;SDS011;69765;47.668;19.326;2023-06-26T10:12:59;7.95;;;5.65;;
80423;SDS011;69765;47.668;19.326;2023-06-26T10:16:06;8.65;;;5.45;;
80423;SDS011;69765;47.668;19.326;2023-06-26T10:19:12;6.03;;;5.40;;
80423;SDS011;69765;47.668;19.326;2023-06-26T10:22:16;7.03;;;6.32;;
80423;SDS011;69765;47.668;19.326;2023-06-26T10:25:20;7.57;;;5.20;;
80423;SDS011;69765;47.668;19.326;2023-06-26T10:28:25;6.45;;;5.15;;
80423;SDS011;69765;47.668;19.326;2023-06-26T10:31:30;6.55;;;5.35;;
80423;SDS011;69765;47.668;19.326;2023-06-26T10:34:34;6.57;;;5.88;;
80423;SDS011;69765;47.668;19.326;2023-06-26T10:37:59;6.47;;;5.55;;
80423;SDS011;69765;47.668;19.326;2023-06-26T10:41:12;5.68;;;5.07;;
80423;SDS011;69765;47.668;19.326;2023-06-26T10:44:17;5.93;;;5.22;;
80423;SDS011;69765;47.668;19.326;2023-06-26T10:47:30;7.95;;;5.78;;
80423;SDS011;69765;47.668;19.326;2023-06-26T10:50:38;7.15;;;5.53;;
80423;SDS011;69765;47.668;19.326;2023-06-26T10:53:41;5.93;;;5.30;;
80423;SDS011;69765;47.668;19.326;2023-06-26T10:56:48;8.25;;;5.57;;
80423;SDS011;69765;47.668;19.326;2023-06-26T11:00:11;6.13;;;5.53;;
80423;SDS011;69765;47.668;19.326;2023-06-26T11:03:22;6.90;;;6.20;;
80423;SDS011;69765;47.668;19.326;2023-06-26T11:06:25;6.28;;;5.68;;
80423;SDS011;69765;47.668;19.326;2023-06-26T11:09:27;5.57;;;5.00;;
80423;SDS011;69765;47.668;19.326;2023-06-26T11:15:45;8.10;;;4.82;;
80423;SDS011;69765;47.668;19.326;2023-06-26T11:18:49;6.65;;;4.88;;
80423;SDS011;69765;47.668;19.326;2023-06-26T11:21:51;7.78;;;5.75;;
80423;SDS011;69765;47.668;19.326;2023-06-26T11:24:55;6.13;;;5.22;;
80423;SDS011;69765;47.668;19.326;2023-06-26T11:28:02;6.60;;;5.18;;
80423;SDS011;69765;47.668;19.326;2023-06-26T11:31:05;6.13;;;4.47;;
80423;SDS011;69765;47.668;19.326;2023-06-26T11:34:08;7.25;;;5.18;;
80423;SDS011;69765;47.668;19.326;2023-06-26T11:37:16;5.95;;;4.57;;
80423;SDS011;69765;47.668;19.326;2023-06-26T11:40:19;6.30;;;4.57;;
80423;SDS011;69765;47.668;19.326;2023-06-26T11:43:23;5.97;;;4.60;;
80423;SDS011;69765;47.668;19.326;2023-06-26T11:46:26;7.20;;;4.72;;
80423;SDS011;69765;47.668;19.326;2023-06-26T11:49:28;6.90;;;5.28;;
80423;SDS011;69765;47.668;19.326;2023-06-26T11:52:32;7.55;;;5.30;;
80423;SDS011;69765;47.668;19.326;2023-06-26T11:55:40;8.00;;;5.07;;
80423;SDS011;69765;47.668;19.326;2023-06-26T12:02:14;6.05;;;4.80;;
80423;SDS011;69765;47.668;19.326;2023-06-26T12:05:17;7.35;;;5.30;;
80423;SDS011;69765;47.668;19.326;2023-06-26T12:08:20;8.18;;;5.03;;
80423;SDS011;69765;47.668;19.326;2023-06-26T12:11:23;6.30;;;5.50;;
80423;SDS011;69765;47.668;19.326;2023-06-26T12:14:28;5.97;;;4.85;;
80423;SDS011;69765;47.668;19.326;2023-06-26T12:17:31;6.22;;;4.82;;
80423;SDS011;69765;47.668;19.326;2023-06-26T12:20:33;7.07;;;5.47;;
80423;SDS011;69765;47.668;19.326;2023-06-26T12:23:42;6.85;;;5.20;;
80423;SDS011;69765;47.668;19.326;2023-06-26T12:26:46;6.50;;;5.10;;
80423;SDS011;69765;47.668;19.326;2023-06-26T12:29:51;7.35;;;5.80;;
80423;SDS011;69765;47.668;19.326;2023-06-26T12:32:55;6.00;;;4.68;;
80423;SDS011;69765;47.668;19.326;2023-06-26T12:35:58;8.25;;;5.78;;
80423;SDS011;69765;47.668;19.326;2023-06-26T12:39:00;6.45;;;4.53;;
80423;SDS011;69765;47.668;19.326;2023-06-26T12:42:02;6.78;;;4.82;;
80423;SDS011;69765;47.668;19.326;2023-06-26T12:45:13;7.38;;;5.03;;
80423;SDS011;69765;47.668;19.326;2023-06-26T12:48:37;8.50;;;5.57;;
80423;SDS011;69765;47.668;19.326;2023-06-26T12:51:45;7.95;;;5.55;;
80423;SDS011;69765;47.668;19.326;2023-06-26T12:54:51;6.60;;;4.63;;
80423;SDS011;69765;47.668;19.326;2023-06-26T13:00:57;6.75;;;4.85;;
80423;SDS011;69765;47.668;19.326;2023-06-26T13:03:59;5.95;;;4.68;;
80423;SDS011;69765;47.668;19.326;2023-06-26T13:07:02;7.43;;;4.65;;
80423;SDS011;69765;47.668;19.326;2023-06-26T13:10:04;6.43;;;4.40;;
80423;SDS011;69765;47.668;19.326;2023-06-26T13:13:08;6.45;;;4.53;;
80423;SDS011;69765;47.668;19.326;2023-06-26T13:16:12;7.55;;;5.28;;
80423;SDS011;69765;47.668;19.326;2023-06-26T13:19:14;7.43;;;5.72;;
80423;SDS011;69765;47.668;19.326;2023-06-26T13:22:16;6.28;;;4.75;;
80423;SDS011;69765;47.668;19.326;2023-06-26T13:25:19;7.55;;;4.85;;
80423;SDS011;69765;47.668;19.326;2023-06-26T13:28:22;7.35;;;5.15;;
80423;SDS011;69765;47.668;19.326;2023-06-26T13:31:24;7.07;;;4.78;;
80423;SDS011;69765;47.668;19.326;2023-06-26T13:34:27;6.88;;;5.20;;
80423;SDS011;69765;47.668;19.326;2023-06-26T13:37:31;8.48;;;5.03;;
80423;SDS011;69765;47.668;19.326;2023-06-26T13:40:33;5.65;;;4.70;;
80423;SDS011;69765;47.668;19.326;2023-06-26T13:43:36;6.63;;;5.10;;
80423;SDS011;69765;47.668;19.326;2023-06-26T13:46:38;7.40;;;5.22;;
80423;SDS011;69765;47.668;19.326;2023-06-26T13:49:40;6.68;;;4.93;;
80423;SDS011;69765;47.668;19.326;2023-06-26T13:52:43;5.95;;;4.47;;
80423;SDS011;69765;47.668;19.326;2023-06-26T13:55:45;6.78;;;4.82;;
80423;SDS011;69765;47.668;19.326;2023-06-26T13:58:47;6.60;;;5.20;;
80423;SDS011;69765;47.668;19.326;2023-06-26T14:01:50;6.20;;;5.25;;
80423;SDS011;69765;47.668;19.326;2023-06-26T14:04:57;7.45;;;4.70;;
80423;SDS011;69765;47.668;19.326;2023-06-26T14:08:01;7.25;;;5.47;;
80423;SDS011;69765;47.668;19.326;2023-06-26T14:11:06;7.28;;;4.80;;
80423;SDS011;69765;47.668;19.326;2023-06-26T14:14:08;6.35;;;5.20;;
80423;SDS011;69765;47.668;19.326;2023-06-26T14:17:11;6.97;;;4.72;;
80423;SDS011;69765;47.668;19.326;2023-06-26T14:23:21;6.47;;;5.00;;
80423;SDS011;69765;47.668;19.326;2023-06-26T14:26:23;6.72;;;4.70;;
80423;SDS011;69765;47.668;19.326;2023-06-26T14:29:25;7.97;;;5.38;;
80423;SDS011;69765;47.668;19.326;2023-06-26T14:32:28;5.90;;;4.85;;
80423;SDS011;69765;47.668;19.326;2023-06-26T14:35:30;6.82;;;5.00;;
80423;SDS011;69765;47.668;19.326;2023-06-26T14:38:33;6.60;;;5.60;;
80423;SDS011;69765;47.668;19.326;2023-06-26T14:41:35;7.35;;;5.72;;
80423;SDS011;69765;47.668;19.326;2023-06-26T14:44:38;6.13;;;4.60;;
80423;SDS011;69765;47.668;19.326;2023-06-26T14:47:40;7.95;;;5.60;;
80423;SDS011;69765;47.668;19.326;2023-06-26T14:50:43;8.20;;;5.82;;
80423;SDS011;69765;47.668;19.326;2023-06-26T14:53:45;6.40;;;5.22;;
80423;SDS011;69765;47.668;19.326;2023-06-26T14:56:49;6.07;;;5.07;;
80423;SDS011;69765;47.668;19.326;2023-06-26T14:59:52;8.77;;;5.43;;
80423;SDS011;69765;47.668;19.326;2023-06-26T15:02:54;7.72;;;5.00;;
80423;SDS011;69765;47.668;19.326;2023-06-26T15:05:59;6.35;;;5.45;;
80423;SDS011;69765;47.668;19.326;2023-06-26T15:09:02;6.90;;;5.50;;
80423;SDS011;69765;47.668;19.326;2023-06-26T15:12:04;6.18;;;5.10;;
80423;SDS011;69765;47.668;19.326;2023-06-26T15:15:07;8.77;;;5.13;;
80423;SDS011;69765;47.668;19.326;2023-06-26T15:18:10;6.85;;;5.18;;
80423;SDS011;69765;47.668;19.326;2023-06-26T15:21:12;8.00;;;5.00;;
80423;SDS011;69765;47.668;19.326;2023-06-26T15:24:14;6.53;;;4.68;;
80423;SDS011;69765;47.668;19.326;2023-06-26T15:27:17;8.40;;;5.00;;
80423;SDS011;69765;47.668;19.326;2023-06-26T15:30:19;6.90;;;4.50;;
80423;SDS011;69765;47.668;19.326;2023-06-26T15:33:22;6.38;;;5.18;;
80423;SDS011;69765;47.668;19.326;2023-06-26T15:36:24;5.95;;;4.95;;
80423;SDS011;69765;47.668;19.326;2023-06-26T15:39:26;6.97;;;5.50;;
80423;SDS011;69765;47.668;19.326;2023-06-26T15:42:29;5.80;;;4.78;;
80423;SDS011;69765;47.668;19.326;2023-06-26T15:45:31;7.43;;;4.78;;
80423;SDS011;69765;47.668;19.326;2023-06-26T15:48:33;8.27;;;4.72;;
80423;SDS011;69765;47.668;19.326;2023-06-26T15:51:36;6.82;;;4.88;;
80423;SDS011;69765;47.668;19.326;2023-06-26T15:54:39;5.95;;;4.32;;
80423;SDS011;69765;47.668;19.326;2023-06-26T15:57:42;7.28;;;4.93;;
80423;SDS011;69765;47.668;19.326;2023-06-26T16:00:44;6.38;;;4.70;;
80423;SDS011;69765;47.668;19.326;2023-06-26T16:03:47;7.05;;;4.57;;
80423;SDS011;69765;47.668;19.326;2023-06-26T16:06:49;5.70;;;4.25;;
80423;SDS011;69765;47.668;19.326;2023-06-26T16:09:52;5.97;;;4.50;;
80423;SDS011;69765;47.668;19.326;2023-06-26T16:12:54;6.28;;;4.85;;
80423;SDS011;69765;47.668;19.326;2023-06-26T16:15:56;6.50;;;4.38;;
80423;SDS011;69765;47.668;19.326;2023-06-26T16:18:59;7.10;;;5.30;;
80423;SDS011;69765;47.668;19.326;2023-06-26T16:22:01;5.03;;;4.18;;
80423;SDS011;69765;47.668;19.326;2023-06-26T16:25:03;5.78;;;4.60;;
80423;SDS011;69765;47.668;19.326;2023-06-26T16:28:06;7.20;;;4.07;;
80423;SDS011;69765;47.668;19.326;2023-06-26T16:31:09;5.45;;;4.47;;
80423;SDS011;69765;47.668;19.326;2023-06-26T16:34:11;5.63;;;4.55;;
80423;SDS011;69765;47.668;19.326;2023-06-26T16:37:13;5.15;;;4.47;;
80423;SDS011;69765;47.668;19.326;2023-06-26T16:40:16;5.85;;;4.75;;
80423;SDS011;69765;47.668;19.326;2023-06-26T16:43:18;6.10;;;4.25;;
80423;SDS011;69765;47.668;19.326;2023-06-26T16:46:21;6.35;;;4.97;;
80423;SDS011;69765;47.668;19.326;2023-06-26T16:49:26;7.78;;;4.32;;
80423;SDS011;69765;47.668;19.326;2023-06-26T16:52:28;5.82;;;4.43;;
80423;SDS011;69765;47.668;19.326;2023-06-26T16:55:30;6.57;;;4.53;;
80423;SDS011;69765;47.668;19.326;2023-06-26T16:58:33;7.60;;;4.28;;
80423;SDS011;69765;47.668;19.326;2023-06-26T17:01:35;6.72;;;4.90;;
80423;SDS011;69765;47.668;19.326;2023-06-26T17:04:38;7.40;;;4.72;;
80423;SDS011;69765;47.668;19.326;2023-06-26T17:07:40;6.65;;;5.15;;
80423;SDS011;69765;47.668;19.326;2023-06-26T17:10:42;6.75;;;4.45;;
80423;SDS011;69765;47.668;19.326;2023-06-26T17:13:45;9.40;;;5.22;;
80423;SDS011;69765;47.668;19.326;2023-06-26T17:16:47;5.50;;;4.50;;
80423;SDS011;69765;47.668;19.326;2023-06-26T17:19:49;5.80;;;4.15;;
80423;SDS011;69765;47.668;19.326;2023-06-26T17:23:00;6.70;;;5.00;;
80423;SDS011;69765;47.668;19.326;2023-06-26T17:26:02;6.05;;;4.95;;
80423;SDS011;69765;47.668;19.326;2023-06-26T17:29:05;6.85;;;4.88;;
80423;SDS011;69765;47.668;19.326;2023-06-26T17:32:07;6.32;;;4.60;;
80423;SDS011;69765;47.668;19.326;2023-06-26T17:35:10;5.97;;;4.47;;
80423;SDS011;69765;47.668;19.326;2023-06-26T17:38:12;6.47;;;4.25;;
80423;SDS011;69765;47.668;19.326;2023-06-26T17:41:15;9.70;;;5.03;;
80423;SDS011;69765;47.668;19.326;2023-06-26T17:44:17;7.75;;;5.22;;
80423;SDS011;69765;47.668;19.326;2023-06-26T17:47:19;8.82;;;5.00;;
80423;SDS011;69765;47.668;19.326;2023-06-26T17:50:22;6.30;;;5.25;;
80423;SDS011;69765;47.668;19.326;2023-06-26T17:53:24;7.70;;;4.72;;
80423;SDS011;69765;47.668;19.326;2023-06-26T17:56:26;6.70;;;5.15;;
80423;SDS011;69765;47.668;19.326;2023-06-26T17:59:29;9.23;;;4.95;;
80423;SDS011;69765;47.668;19.326;2023-06-26T18:02:32;6.75;;;4.97;;
80423;SDS011;69765;47.668;19.326;2023-06-26T18:05:34;8.77;;;5.15;;
80423;SDS011;69765;47.668;19.326;2023-06-26T18:08:36;7.32;;;5.30;;
80423;SDS011;69765;47.668;19.326;2023-06-26T18:11:39;6.50;;;5.30;;
80423;SDS011;69765;47.668;19.326;2023-06-26T18:14:41;10.55;;;4.88;;
80423;SDS011;69765;47.668;19.326;2023-06-26T18:17:43;9.07;;;5.68;;
80423;SDS011;69765;47.668;19.326;2023-06-26T18:20:46;8.20;;;5.80;;
80423;SDS011;69765;47.668;19.326;2023-06-26T18:23:48;6.28;;;4.68;;
80423;SDS011;69765;47.668;19.326;2023-06-26T18:26:52;6.38;;;4.68;;
80423;SDS011;69765;47.668;19.326;2023-06-26T18:29:54;6.38;;;4.68;;